createdAt,value
2018-12-15T00:01:02.228Z,11.03
2018-12-15T00:03:33.044Z,10.50
2018-12-15T00:06:03.928Z,11.53
2018-12-15T00:08:32.794Z,11.40
2018-12-15T00:11:01.649Z,11.73
2018-12-15T00:13:30.500Z,10.43
2018-12-15T00:15:59.345Z,12.73
2018-12-15T00:18:28.261Z,10.83
2018-12-15T00:20:57.220Z,10.80
2018-12-15T00:23:26.097Z,10.90
2018-12-15T00:25:54.954Z,10.80
2018-12-15T00:28:23.827Z,12.40
2018-12-15T00:30:53.326Z,10.80
2018-12-15T00:33:22.175Z,10.30
2018-12-15T00:35:51.047Z,11.57
2018-12-15T00:38:19.903Z,11.50
2018-12-15T00:40:48.793Z,10.83
2018-12-15T00:43:17.667Z,11.77
2018-12-15T00:45:46.520Z,12.97
2018-12-15T00:48:15.366Z,11.10
2018-12-15T00:50:44.152Z,11.67
2018-12-15T00:53:12.928Z,14.00
2018-12-15T00:55:41.787Z,12.13
2018-12-15T00:58:10.676Z,12.07
2018-12-15T01:00:39.634Z,10.70
2018-12-15T01:03:08.568Z,12.33
2018-12-15T01:05:37.508Z,13.13
2018-12-15T01:08:06.339Z,11.90
2018-12-15T01:10:35.252Z,11.83
2018-12-15T01:13:04.442Z,13.33
2018-12-15T01:15:38.954Z,11.90
2018-12-15T01:18:07.816Z,11.03
2018-12-15T01:20:36.670Z,12.77
2018-12-15T01:23:05.612Z,10.50
2018-12-15T01:25:34.724Z,13.83
2018-12-15T01:28:03.670Z,12.07
2018-12-15T01:30:32.514Z,12.73
2018-12-15T01:33:01.710Z,12.10
2018-12-15T01:35:31.315Z,12.13
2018-12-15T01:38:00.487Z,13.40
2018-12-15T01:40:29.614Z,11.27
2018-12-15T01:42:58.465Z,11.87
2018-12-15T01:45:27.392Z,12.60
2018-12-15T01:47:56.352Z,12.87
2018-12-15T01:50:25.225Z,12.43
2018-12-15T01:52:54.086Z,13.73
2018-12-15T01:55:22.972Z,14.87
2018-12-15T01:57:52.345Z,12.87
2018-12-15T02:00:22.176Z,12.40
2018-12-15T02:02:51.135Z,12.30
2018-12-15T02:05:20.352Z,12.97
2018-12-15T02:07:49.207Z,12.77
2018-12-15T02:10:18.170Z,13.73
2018-12-15T02:12:46.971Z,12.97
2018-12-15T02:15:16.182Z,11.37
2018-12-15T02:17:45.035Z,11.87
2018-12-15T02:20:13.972Z,13.90
2018-12-15T02:22:42.822Z,12.27
2018-12-15T02:25:11.684Z,11.83
2018-12-15T02:27:40.553Z,12.17
2018-12-15T02:30:09.597Z,14.17
2018-12-15T02:32:38.455Z,14.17
2018-12-15T02:35:07.397Z,12.23
2018-12-15T02:37:36.299Z,15.97
2018-12-15T02:40:06.784Z,14.73
2018-12-15T02:42:35.627Z,11.87
2018-12-15T02:45:07.188Z,13.10
2018-12-15T02:47:41.402Z,12.13
2018-12-15T02:50:06.821Z,13.90
2018-12-15T02:52:35.678Z,13.27
2018-12-15T02:55:04.803Z,14.03
2018-12-15T02:57:33.929Z,13.27
2018-12-15T03:00:02.795Z,15.13
2018-12-15T03:02:31.683Z,16.40
2018-12-15T03:05:00.534Z,13.73
2018-12-15T03:07:29.480Z,12.33
2018-12-15T03:09:58.336Z,14.43
2018-12-15T03:12:27.269Z,12.37
2018-12-15T03:14:56.163Z,14.33
2018-12-15T03:17:25.481Z,12.90
2018-12-15T03:20:00.273Z,12.03
2018-12-15T03:22:29.145Z,13.77
2018-12-15T03:24:58.099Z,14.30
2018-12-15T03:27:26.946Z,13.60
2018-12-15T03:29:56.797Z,15.07
2018-12-15T03:32:25.626Z,12.87
2018-12-15T03:34:54.426Z,14.13
2018-12-15T03:37:23.368Z,15.10
2018-12-15T03:39:52.227Z,15.67
2018-12-15T03:42:21.671Z,12.53
2018-12-15T03:44:50.537Z,14.67
2018-12-15T03:47:20.061Z,15.90
2018-12-15T03:49:48.888Z,12.63
2018-12-15T03:52:17.746Z,13.67
2018-12-15T03:54:47.186Z,13.80
2018-12-15T03:57:16.006Z,14.33
2018-12-15T03:59:44.946Z,13.60
2018-12-15T04:02:13.983Z,14.30
2018-12-15T04:04:43.010Z,14.27
2018-12-15T04:07:11.921Z,13.63
2018-12-15T04:09:40.778Z,13.80
2018-12-15T04:12:09.620Z,12.53
2018-12-15T04:14:38.480Z,14.33
2018-12-15T04:17:07.310Z,14.67
2018-12-15T04:19:36.197Z,14.50
2018-12-15T04:22:19.032Z,15.30
2018-12-15T04:24:48.047Z,12.93
2018-12-15T04:27:16.928Z,14.17
2018-12-15T04:29:47.777Z,12.73
2018-12-15T04:32:16.662Z,15.97
2018-12-15T04:34:45.497Z,13.43
2018-12-15T04:37:14.364Z,13.13
2018-12-15T04:39:43.297Z,14.60
2018-12-15T04:42:12.183Z,13.87
2018-12-15T04:44:41.080Z,16.17
2018-12-15T04:47:10.327Z,12.77
2018-12-15T04:49:39.164Z,15.00
2018-12-15T04:52:08.022Z,13.40
2018-12-15T04:54:36.941Z,14.13
2018-12-15T04:57:05.784Z,14.03
2018-12-15T04:59:34.629Z,12.70
2018-12-15T05:02:03.575Z,15.53
2018-12-15T05:04:33.046Z,14.33
2018-12-15T05:07:01.912Z,14.10
2018-12-15T05:09:30.741Z,13.97
2018-12-15T05:11:59.574Z,13.27
2018-12-15T05:14:28.449Z,13.70
2018-12-15T05:16:57.292Z,13.10
2018-12-15T05:19:26.282Z,12.77
2018-12-15T05:21:55.186Z,14.80
2018-12-15T05:24:24.315Z,13.17
2018-12-15T05:26:53.159Z,12.73
2018-12-15T05:29:22.107Z,11.27
2018-12-15T05:31:50.944Z,14.67
2018-12-15T05:34:19.786Z,12.67
2018-12-15T05:36:49.610Z,15.40
2018-12-15T05:39:18.463Z,13.00
2018-12-15T05:41:47.342Z,13.57
2018-12-15T05:44:17.372Z,13.30
2018-12-15T05:46:46.158Z,13.53
2018-12-15T05:49:15.066Z,13.40
2018-12-15T05:51:43.927Z,13.53
2018-12-15T05:54:12.844Z,11.60
2018-12-15T05:56:41.720Z,12.57
2018-12-15T05:59:10.656Z,12.47
2018-12-15T06:01:39.498Z,11.80
2018-12-15T06:04:08.387Z,13.03
2018-12-15T06:06:37.625Z,12.23
2018-12-15T06:09:06.916Z,11.20
2018-12-15T06:11:36.002Z,11.87
2018-12-15T06:14:05.253Z,14.40
2018-12-15T06:16:34.195Z,11.30
2018-12-15T06:19:03.147Z,11.30
2018-12-15T06:21:31.996Z,12.47
2018-12-15T06:24:00.770Z,10.27
2018-12-15T06:26:29.598Z,10.90
2018-12-15T06:28:58.689Z,11.00
2018-12-15T06:31:27.534Z,11.50
2018-12-15T06:33:56.413Z,12.73
2018-12-15T06:36:25.572Z,10.93
2018-12-15T06:38:54.427Z,13.47
2018-12-15T06:41:23.293Z,11.27
2018-12-15T06:43:52.358Z,12.03
2018-12-15T06:46:21.308Z,12.07
2018-12-15T06:48:50.266Z,11.40
2018-12-15T06:51:19.166Z,12.87
2018-12-15T06:53:48.017Z,12.10
2018-12-15T06:56:16.908Z,11.73
2018-12-15T06:58:45.766Z,11.97
2018-12-15T07:01:14.608Z,11.67
2018-12-15T07:03:43.486Z,10.20
2018-12-15T07:06:12.388Z,12.13
2018-12-15T07:08:48.752Z,10.77
2018-12-15T07:11:18.166Z,12.97
2018-12-15T07:13:47.027Z,10.27
2018-12-15T07:16:15.942Z,10.23
2018-12-15T07:18:45.849Z,12.23
2018-12-15T07:21:16.606Z,10.77
2018-12-15T07:23:45.489Z,11.33
2018-12-15T07:26:14.440Z,12.43
2018-12-15T07:28:43.304Z,10.93
2018-12-15T07:31:12.134Z,11.53
2018-12-15T07:33:41.450Z,12.10
2018-12-15T07:36:10.316Z,9.53
2018-12-15T07:38:39.166Z,11.53
2018-12-15T07:41:08.042Z,11.67
2018-12-15T07:43:36.889Z,10.63
2018-12-15T07:46:06.515Z,11.00
2018-12-15T07:48:35.356Z,9.93
2018-12-15T07:51:04.266Z,10.80
2018-12-15T07:53:33.116Z,9.80
2018-12-15T07:56:01.987Z,10.97
2018-12-15T07:58:30.808Z,11.53
2018-12-15T08:00:59.649Z,11.60
2018-12-15T08:03:29.491Z,10.10
2018-12-15T08:05:58.379Z,10.63
2018-12-15T08:08:27.310Z,10.40
2018-12-15T08:17:56.446Z,8.97
2018-12-15T08:20:25.356Z,10.63
2018-12-15T08:22:54.200Z,9.23
2018-12-15T08:25:23.109Z,10.03
2018-12-15T08:27:52.292Z,11.03
2018-12-15T08:30:21.142Z,10.07
2018-12-15T08:32:51.100Z,10.93
2018-12-15T08:35:20.002Z,11.07
2018-12-15T08:37:48.876Z,9.70
2018-12-15T08:40:19.462Z,10.63
2018-12-15T08:42:48.245Z,11.30
2018-12-15T08:45:17.100Z,10.67
2018-12-15T08:47:46.018Z,11.87
2018-12-15T08:50:15.139Z,9.23
2018-12-15T08:52:44.952Z,10.77
2018-12-15T08:55:13.796Z,11.60
2018-12-15T08:57:42.619Z,10.40
2018-12-15T09:00:12.091Z,11.37
2018-12-15T09:02:41.068Z,11.90
2018-12-15T09:05:10.865Z,10.80
2018-12-15T09:07:40.184Z,14.27
2018-12-15T09:10:09.091Z,11.10
2018-12-15T09:12:37.978Z,10.23
2018-12-15T09:15:07.031Z,10.70
2018-12-15T09:17:36.960Z,10.87
2018-12-15T09:20:06.169Z,10.47
2018-12-15T09:22:34.999Z,11.83
2018-12-15T09:25:04.149Z,11.07
2018-12-15T09:32:34.586Z,11.33
2018-12-15T09:35:04.527Z,13.30
2018-12-15T09:42:26.982Z,10.87
2018-12-15T09:44:55.877Z,12.37
2018-12-15T09:47:25.444Z,12.33
2018-12-15T09:49:54.353Z,12.43
2018-12-15T09:52:23.278Z,12.67
2018-12-15T09:54:52.344Z,12.37
2018-12-15T09:57:21.708Z,11.97
2018-12-15T09:59:50.637Z,12.07
2018-12-15T10:02:20.461Z,13.73
2018-12-15T10:04:49.682Z,10.77
2018-12-15T10:07:18.617Z,11.40
2018-12-15T10:09:48.319Z,13.83
2018-12-15T10:12:17.182Z,11.70
2018-12-15T10:14:46.254Z,11.80
2018-12-15T10:17:15.092Z,11.87
2018-12-15T10:19:43.999Z,11.23
2018-12-15T10:22:12.836Z,10.10
2018-12-15T10:24:41.658Z,9.03
2018-12-15T10:27:10.474Z,11.67
2018-12-15T10:29:44.569Z,11.50
2018-12-15T10:32:18.824Z,14.30
2018-12-15T10:34:47.717Z,11.00
2018-12-15T10:37:16.514Z,12.83
2018-12-15T10:39:45.402Z,13.43
2018-12-15T10:42:14.262Z,11.23
2018-12-15T10:44:43.105Z,11.47
2018-12-15T10:47:11.929Z,11.30
2018-12-15T10:49:42.717Z,10.70
2018-12-15T10:52:11.923Z,8.50
2018-12-15T10:54:41.771Z,9.37
2018-12-15T10:57:18.090Z,10.03
2018-12-15T10:59:46.876Z,9.27
2018-12-15T11:02:19.533Z,9.57
2018-12-15T11:04:48.563Z,10.77
2018-12-15T11:07:17.448Z,9.83
2018-12-15T11:09:46.752Z,11.37
2018-12-15T11:12:16.018Z,11.07
2018-12-15T11:14:46.352Z,10.87
2018-12-15T11:17:15.240Z,10.70
2018-12-15T11:19:44.396Z,9.93
2018-12-15T11:22:14.289Z,10.43
2018-12-15T11:24:43.237Z,11.70
2018-12-15T11:27:13.256Z,9.63
2018-12-15T11:29:42.117Z,12.33
2018-12-15T11:32:10.946Z,9.77
2018-12-15T11:34:39.795Z,9.73
2018-12-15T11:37:08.620Z,8.43
2018-12-15T11:39:37.450Z,8.83
2018-12-15T11:42:08.383Z,9.17
2018-12-15T11:44:37.516Z,10.27
2018-12-15T11:47:06.316Z,7.73
2018-12-15T11:49:35.110Z,8.97
2018-12-15T11:52:03.929Z,8.43
2018-12-15T11:54:34.225Z,7.20
2018-12-15T11:57:05.196Z,8.40
2018-12-15T11:59:35.406Z,8.70
2018-12-15T12:02:04.287Z,8.60
2018-12-15T12:04:34.005Z,7.07
2018-12-15T12:07:03.073Z,8.33
2018-12-15T12:09:31.881Z,7.60
2018-12-15T12:12:00.650Z,8.20
2018-12-15T12:14:29.421Z,9.13
2018-12-15T12:16:59.535Z,8.53
2018-12-15T12:19:28.292Z,8.67
2018-12-15T12:21:57.066Z,9.23
2018-12-15T12:24:25.826Z,8.33
2018-12-15T12:26:56.550Z,11.00
2018-12-15T12:29:25.389Z,10.07
2018-12-15T12:31:54.402Z,11.63
2018-12-15T12:34:23.161Z,10.10
2018-12-15T12:36:52.025Z,8.43
2018-12-15T12:39:20.894Z,11.10
2018-12-15T12:41:51.642Z,10.90
2018-12-15T12:44:20.411Z,9.83
2018-12-15T12:46:49.237Z,10.43
2018-12-15T12:49:18.618Z,12.20
2018-12-15T12:51:47.409Z,11.20
2018-12-15T12:54:16.173Z,10.07
2018-12-15T12:56:44.977Z,9.30
2018-12-15T12:59:13.765Z,9.70
2018-12-15T13:01:42.565Z,10.10
2018-12-15T13:04:11.410Z,10.53
2018-12-15T13:06:40.190Z,10.43
2018-12-15T13:09:09.118Z,12.03
2018-12-15T13:11:39.007Z,10.97
2018-12-15T13:14:08.917Z,10.67
2018-12-15T13:16:38.456Z,11.37
2018-12-15T13:19:07.398Z,10.63
2018-12-15T13:21:36.487Z,10.43
2018-12-15T13:24:05.287Z,11.40
2018-12-15T13:26:34.164Z,11.37
2018-12-15T13:29:04.365Z,9.83
2018-12-15T13:31:34.997Z,9.70
2018-12-15T13:34:04.012Z,10.87
2018-12-15T13:36:33.403Z,11.63
2018-12-15T13:39:02.477Z,9.87
2018-12-15T13:41:31.416Z,12.83
2018-12-15T13:44:00.284Z,11.20
2018-12-15T13:46:29.532Z,11.63
2018-12-15T13:48:58.665Z,11.47
2018-12-15T13:51:27.500Z,12.03
2018-12-15T13:53:56.431Z,11.07
2018-12-15T13:56:27.632Z,11.93
2018-12-15T13:58:57.342Z,11.77
2018-12-15T14:01:26.360Z,12.40
2018-12-15T14:03:55.228Z,12.27
2018-12-15T14:06:24.422Z,13.00
2018-12-15T14:08:53.269Z,12.07
2018-12-15T14:11:22.127Z,11.47
2018-12-15T14:13:50.972Z,13.00
2018-12-15T14:16:19.946Z,12.23
2018-12-15T14:18:48.976Z,10.93
2018-12-15T14:21:17.807Z,13.37
2018-12-15T14:23:46.641Z,14.20
2018-12-15T14:26:15.470Z,10.90
2018-12-15T14:28:44.279Z,12.63
2018-12-15T14:31:13.126Z,13.03
2018-12-15T14:33:41.972Z,12.87
2018-12-15T14:36:10.825Z,12.57
2018-12-15T14:38:39.707Z,13.53
2018-12-15T14:41:08.529Z,13.10
2018-12-15T14:43:37.364Z,13.00
2018-12-15T14:46:06.156Z,12.67
2018-12-15T14:48:35.044Z,14.17
2018-12-15T14:51:03.960Z,12.53
2018-12-15T14:53:32.750Z,13.77
2018-12-15T14:56:02.256Z,13.23
2018-12-15T14:58:31.334Z,13.40
2018-12-15T15:01:02.000Z,14.70
2018-12-15T15:03:31.914Z,12.43
2018-12-15T15:06:00.708Z,11.20
2018-12-15T15:08:29.636Z,14.10
2018-12-15T15:10:58.450Z,12.37
2018-12-15T15:13:27.355Z,12.07
2018-12-15T15:15:56.282Z,13.33
2018-12-15T15:18:25.228Z,13.30
2018-12-15T15:20:54.674Z,13.13
2018-12-15T15:23:24.132Z,13.23
2018-12-15T15:25:53.580Z,11.97
2018-12-15T15:28:22.982Z,12.77
2018-12-15T15:30:52.807Z,13.10
2018-12-15T15:33:23.311Z,13.60
2018-12-15T15:35:54.297Z,11.17
2018-12-15T15:38:23.337Z,13.50
2018-12-15T15:40:52.157Z,12.67
2018-12-15T15:43:21.095Z,12.70
2018-12-15T15:45:49.923Z,13.10
2018-12-15T15:48:18.815Z,12.47
2018-12-15T15:50:47.779Z,13.87
2018-12-15T15:53:16.586Z,13.43
2018-12-15T15:55:45.410Z,14.90
2018-12-15T15:58:14.330Z,13.43
2018-12-15T16:00:43.292Z,13.00
2018-12-15T16:03:12.136Z,12.43
2018-12-15T16:05:41.080Z,12.20
2018-12-15T16:08:09.921Z,13.30
2018-12-15T16:10:40.398Z,13.63
2018-12-15T16:13:09.687Z,13.80
2018-12-15T16:15:38.620Z,13.60
2018-12-15T16:18:07.438Z,13.90
2018-12-15T16:20:43.026Z,12.33
2018-12-15T16:23:07.237Z,13.90
2018-12-15T16:25:36.071Z,11.60
2018-12-15T16:28:04.867Z,12.37
2018-12-15T16:30:33.691Z,10.50
2018-12-15T16:33:02.758Z,12.70
2018-12-15T16:35:32.653Z,13.70
2018-12-15T16:38:01.517Z,13.07
2018-12-15T16:40:30.430Z,13.70
2018-12-15T16:42:59.273Z,11.33
2018-12-15T16:45:28.154Z,11.70
2018-12-15T16:47:56.959Z,12.93
2018-12-15T16:50:25.850Z,13.20
2018-12-15T16:52:54.782Z,15.03
2018-12-15T16:55:23.965Z,12.20
2018-12-15T16:57:52.790Z,11.10
2018-12-15T17:00:21.613Z,11.17
2018-12-15T17:02:50.433Z,11.70
2018-12-15T17:05:19.339Z,12.40
2018-12-15T17:07:48.165Z,14.30
2018-12-15T17:10:17.078Z,12.40
2018-12-15T17:12:45.889Z,13.63
2018-12-15T17:15:14.796Z,10.57
2018-12-15T17:17:43.616Z,13.83
2018-12-15T17:20:12.607Z,13.03
2018-12-15T17:22:41.431Z,11.37
2018-12-15T17:25:10.426Z,13.13
2018-12-15T17:27:39.267Z,12.70
2018-12-15T17:30:10.059Z,13.60
2018-12-15T17:32:39.054Z,11.43
2018-12-15T17:35:08.116Z,11.53
2018-12-15T17:37:37.914Z,11.53
2018-12-15T17:40:08.618Z,11.77
2018-12-15T17:42:37.714Z,10.13
2018-12-15T17:45:07.947Z,11.80
2018-12-15T17:47:37.198Z,12.60
2018-12-15T17:50:08.786Z,10.97
2018-12-15T17:52:39.565Z,13.83
2018-12-15T17:55:09.603Z,13.07
2018-12-15T17:57:38.438Z,11.60
2018-12-15T18:00:10.070Z,12.30
2018-12-15T18:02:39.927Z,12.53
2018-12-15T18:05:08.943Z,11.73
2018-12-15T18:07:37.765Z,13.27
2018-12-15T18:10:08.007Z,12.67
2018-12-15T18:12:36.817Z,11.17
2018-12-15T18:15:06.709Z,12.83
2018-12-15T18:17:36.593Z,11.27
2018-12-15T18:20:06.653Z,11.73
2018-12-15T18:22:35.453Z,11.37
2018-12-15T18:25:05.222Z,12.35
2018-12-15T18:27:34.020Z,12.57
2018-12-15T18:30:03.264Z,11.17
2018-12-15T18:32:32.181Z,11.30
2018-12-15T18:35:01.012Z,10.80
2018-12-15T18:37:29.823Z,11.90
2018-12-15T18:39:58.655Z,11.20
2018-12-15T18:42:27.492Z,12.83
2018-12-15T18:44:56.415Z,11.73
2018-12-15T18:47:25.234Z,11.50
2018-12-15T18:49:54.057Z,11.97
2018-12-15T18:52:22.890Z,12.87
2018-12-15T18:54:51.694Z,12.67
2018-12-15T18:57:21.004Z,13.83
2018-12-15T18:59:49.789Z,10.57
2018-12-15T19:02:18.615Z,12.30
2018-12-15T19:04:47.741Z,11.17
2018-12-15T19:07:16.554Z,10.47
2018-12-15T19:09:45.365Z,11.67
2018-12-15T19:12:14.374Z,10.17
2018-12-15T19:14:43.181Z,10.80
2018-12-15T19:17:12.090Z,12.53
2018-12-15T19:19:41.047Z,11.73
2018-12-15T19:22:09.872Z,12.80
2018-12-15T19:24:39.415Z,12.50
2018-12-15T19:27:09.283Z,12.70
2018-12-15T19:29:38.097Z,10.80
2018-12-15T19:32:07.001Z,12.53
2018-12-15T19:34:35.830Z,11.57
2018-12-15T19:37:04.727Z,10.87
2018-12-15T19:39:33.541Z,11.00
2018-12-15T19:42:02.381Z,10.03
2018-12-15T19:44:31.269Z,11.33
2018-12-15T19:47:00.093Z,11.57
2018-12-15T19:49:28.914Z,11.93
2018-12-15T19:52:04.417Z,11.13
2018-12-15T19:54:33.822Z,11.60
2018-12-15T19:57:02.641Z,10.07
2018-12-15T19:59:31.461Z,10.53
2018-12-15T20:02:00.296Z,12.63
2018-12-15T20:04:29.456Z,14.07
2018-12-15T20:06:58.308Z,13.37
2018-12-15T20:09:27.165Z,11.23
2018-12-15T20:11:56.094Z,10.63
2018-12-15T20:14:24.967Z,9.43
2018-12-15T20:16:53.749Z,9.77
2018-12-15T20:19:23.332Z,12.57
2018-12-15T20:21:52.160Z,10.97
2018-12-15T20:24:21.108Z,11.67
2018-12-15T20:26:49.952Z,10.40
2018-12-15T20:29:19.067Z,11.07
2018-12-15T20:31:47.898Z,12.53
2018-12-15T20:34:17.784Z,12.23
2018-12-15T20:36:46.706Z,11.43
2018-12-15T20:39:16.032Z,10.97
2018-12-15T20:41:45.146Z,13.27
2018-12-15T20:44:14.110Z,10.33
2018-12-15T20:46:43.423Z,10.90
2018-12-15T20:49:12.245Z,11.00
2018-12-15T20:51:42.975Z,11.33
2018-12-15T20:54:18.939Z,13.47
2018-12-15T20:56:47.798Z,11.17
2018-12-15T20:59:17.669Z,13.17
2018-12-15T21:01:46.830Z,10.27
2018-12-15T21:04:17.713Z,12.73
2018-12-15T21:06:46.491Z,10.77
2018-12-15T21:09:15.337Z,12.73
2018-12-15T21:11:44.110Z,11.33
2018-12-15T21:14:12.863Z,11.00
2018-12-15T21:16:41.650Z,11.87
2018-12-15T21:19:10.508Z,9.90
2018-12-15T21:21:39.281Z,10.57
2018-12-15T21:24:08.075Z,10.90
2018-12-15T21:26:36.848Z,11.07
2018-12-15T21:29:05.681Z,12.53
2018-12-15T21:31:34.445Z,10.80
2018-12-15T21:34:07.863Z,12.57
2018-12-15T21:36:35.578Z,10.80
2018-12-15T21:39:06.613Z,12.07
2018-12-15T21:41:37.426Z,11.47
2018-12-15T21:44:06.634Z,11.27
2018-12-15T21:46:35.406Z,10.90
2018-12-15T21:49:04.214Z,13.37
2018-12-15T21:51:33.107Z,12.00
2018-12-15T21:54:02.998Z,11.10
2018-12-15T21:56:31.893Z,12.20
2018-12-15T21:59:00.650Z,11.13
2018-12-15T22:01:29.418Z,11.33
2018-12-15T22:03:58.866Z,11.33
2018-12-15T22:06:27.649Z,12.10
2018-12-15T22:08:56.519Z,12.27
2018-12-15T22:11:25.290Z,10.70
2018-12-15T22:13:54.073Z,10.53
2018-12-15T22:16:22.864Z,14.33
2018-12-15T22:18:51.633Z,11.87
2018-12-15T22:21:20.418Z,12.03
2018-12-15T22:23:49.169Z,11.87
2018-12-15T22:26:17.942Z,12.50
2018-12-15T22:28:46.789Z,13.83
2018-12-15T22:31:15.642Z,13.17
2018-12-15T22:33:44.413Z,10.37
2018-12-15T22:36:14.233Z,13.00
2018-12-15T22:38:43.076Z,12.13
2018-12-15T22:41:11.826Z,11.37
2018-12-15T22:43:40.597Z,12.80
2018-12-15T22:46:09.805Z,12.23
2018-12-15T22:48:38.619Z,10.80
2018-12-15T22:51:07.376Z,12.50
2018-12-15T22:53:36.173Z,10.90
2018-12-15T22:56:05.032Z,11.90
2018-12-15T22:58:33.818Z,13.17
2018-12-15T23:01:08.008Z,13.17
2018-12-15T23:03:38.910Z,11.07
2018-12-15T23:06:08.909Z,13.00
2018-12-15T23:08:37.856Z,14.03
2018-12-15T23:11:06.644Z,11.13
2018-12-15T23:13:35.406Z,14.00
2018-12-15T23:16:04.281Z,11.20
2018-12-15T23:18:33.194Z,13.43
2018-12-15T23:21:01.985Z,13.87
2018-12-15T23:23:30.737Z,14.93
2018-12-15T23:25:59.513Z,12.03
2018-12-15T23:28:28.291Z,15.27
2018-12-15T23:30:57.469Z,17.17
2018-12-15T23:33:26.217Z,17.77
2018-12-15T23:35:55.074Z,19.20
2018-12-15T23:38:23.918Z,20.17
2018-12-15T23:40:52.778Z,18.23
2018-12-15T23:43:21.565Z,19.57
2018-12-15T23:45:51.713Z,21.57
2018-12-15T23:48:20.566Z,19.57
2018-12-15T23:50:49.405Z,23.40
2018-12-15T23:53:18.176Z,22.50
2018-12-15T23:55:46.934Z,22.20
2018-12-15T23:58:15.814Z,19.90
